createdAt,value
2018-09-29T00:01:56.320Z,1.20
2018-09-29T00:04:24.965Z,1.30
2018-09-29T00:06:53.915Z,1.60
2018-09-29T00:09:23.320Z,1.50
2018-09-29T00:11:52.729Z,1.40
2018-09-29T00:14:22.121Z,1.10
2018-09-29T00:16:51.445Z,1.33
2018-09-29T00:19:20.919Z,1.22
2018-09-29T00:21:50.244Z,1.00
2018-09-29T00:24:19.305Z,1.27
2018-09-29T00:26:48.100Z,1.47
2018-09-29T00:29:16.743Z,1.50
2018-09-29T00:31:45.396Z,1.00
2018-09-29T00:34:14.083Z,1.23
2018-09-29T00:36:42.885Z,1.17
2018-09-29T00:39:11.662Z,1.27
2018-09-29T00:41:40.440Z,0.97
2018-09-29T00:44:09.060Z,1.30
2018-09-29T00:46:37.698Z,1.40
2018-09-29T00:49:06.371Z,1.40
2018-09-29T00:51:35.045Z,1.03
2018-09-29T00:54:04.509Z,1.47
2018-09-29T00:56:33.136Z,1.23
2018-09-29T00:59:01.804Z,1.50
2018-09-29T01:01:30.419Z,1.60
2018-09-29T01:03:59.072Z,1.10
2018-09-29T01:06:27.811Z,1.30
2018-09-29T01:08:56.448Z,1.30
2018-09-29T01:11:25.110Z,1.10
2018-09-29T01:13:53.869Z,1.67
2018-09-29T01:16:22.628Z,1.40
2018-09-29T01:18:51.292Z,1.30
2018-09-29T01:21:19.980Z,1.33
2018-09-29T01:23:48.616Z,1.30
2018-09-29T01:26:17.264Z,1.17
2018-09-29T01:28:45.935Z,1.50
2018-09-29T01:31:14.628Z,1.40
2018-09-29T01:33:43.311Z,1.10
2018-09-29T01:36:12.116Z,1.20
2018-09-29T01:38:40.741Z,1.60
2018-09-29T01:41:09.363Z,1.43
2018-09-29T01:43:38.036Z,1.30
2018-09-29T01:46:06.740Z,1.20
2018-09-29T01:48:35.363Z,1.73
2018-09-29T01:51:04.297Z,1.17
2018-09-29T01:53:32.957Z,1.20
2018-09-29T01:56:01.768Z,1.03
2018-09-29T01:58:30.467Z,0.93
2018-09-29T02:00:59.125Z,1.40
2018-09-29T02:03:27.872Z,1.20
2018-09-29T02:05:56.520Z,1.23
2018-09-29T02:08:25.166Z,1.10
2018-09-29T02:10:53.809Z,0.90
2018-09-29T02:13:22.411Z,1.10
2018-09-29T02:15:51.031Z,1.30
2018-09-29T02:18:19.654Z,1.17
2018-09-29T02:20:48.336Z,1.20
2018-09-29T02:23:16.959Z,1.33
2018-09-29T02:25:45.665Z,1.60
2018-09-29T02:28:14.413Z,1.33
2018-09-29T02:30:43.058Z,1.30
2018-09-29T02:33:11.696Z,0.93
2018-09-29T02:35:40.338Z,1.00
2018-09-29T02:38:09.038Z,1.20
2018-09-29T02:40:37.676Z,1.20
2018-09-29T02:43:06.344Z,0.93
2018-09-29T02:45:35.003Z,0.80
2018-09-29T02:48:04.172Z,1.02
2018-09-29T02:50:32.883Z,1.30
2018-09-29T02:53:01.792Z,1.10
2018-09-29T02:55:30.492Z,1.17
2018-09-29T02:57:59.106Z,1.13
2018-09-29T03:00:27.743Z,0.93
2018-09-29T03:02:56.335Z,1.40
2018-09-29T03:05:24.963Z,1.00
2018-09-29T03:07:53.604Z,1.10
2018-09-29T03:10:22.261Z,1.20
2018-09-29T03:12:50.895Z,1.00
2018-09-29T03:15:19.602Z,1.20
2018-09-29T03:17:48.284Z,1.20
2018-09-29T03:20:16.927Z,1.10
2018-09-29T03:22:45.599Z,1.10
2018-09-29T03:25:14.230Z,1.00
2018-09-29T03:27:42.876Z,1.30
2018-09-29T03:30:11.491Z,0.90
2018-09-29T03:32:40.177Z,1.40
2018-09-29T03:35:08.793Z,1.37
2018-09-29T03:37:37.465Z,1.10
2018-09-29T03:40:06.170Z,1.30
2018-09-29T03:42:34.875Z,1.13
2018-09-29T03:45:03.560Z,1.00
2018-09-29T03:47:32.244Z,1.20
2018-09-29T03:50:00.880Z,1.50
2018-09-29T03:52:29.504Z,1.37
2018-09-29T03:54:58.233Z,1.13
2018-09-29T03:57:26.911Z,1.03
2018-09-29T03:59:55.660Z,0.93
2018-09-29T04:02:24.283Z,1.33
2018-09-29T04:04:52.908Z,1.70
2018-09-29T04:07:21.791Z,1.67
2018-09-29T04:09:50.686Z,0.97
2018-09-29T04:12:19.426Z,1.20
2018-09-29T04:14:48.069Z,0.90
2018-09-29T04:17:16.844Z,1.13
2018-09-29T04:19:45.484Z,1.23
2018-09-29T04:22:14.187Z,1.20
2018-09-29T04:24:42.898Z,0.70
2018-09-29T04:27:11.546Z,1.10
2018-09-29T04:29:40.257Z,1.53
2018-09-29T04:32:08.913Z,1.30
2018-09-29T04:34:37.591Z,1.07
2018-09-29T04:37:06.323Z,1.40
2018-09-29T04:39:35.005Z,1.33
2018-09-29T04:42:04.424Z,1.30
2018-09-29T04:44:36.991Z,1.13
2018-09-29T04:47:08.259Z,1.07
2018-09-29T04:49:37.066Z,1.50
2018-09-29T04:52:09.253Z,1.20
2018-09-29T04:54:38.079Z,1.03
2018-09-29T04:59:42.743Z,1.50
2018-09-29T05:02:16.796Z,2.23
2018-09-29T05:04:46.295Z,1.27
2018-09-29T05:07:15.022Z,1.40
2018-09-29T05:09:44.016Z,1.35
2018-09-29T05:12:13.103Z,1.47
2018-09-29T05:14:41.886Z,1.53
2018-09-29T05:17:10.572Z,1.30
2018-09-29T05:19:39.444Z,1.47
2018-09-29T05:22:08.285Z,1.20
2018-09-29T05:24:37.266Z,1.20
2018-09-29T05:27:06.264Z,1.30
2018-09-29T05:29:35.377Z,1.37
2018-09-29T05:32:04.740Z,0.95
2018-09-29T05:34:33.558Z,1.43
2018-09-29T05:37:02.431Z,1.20
2018-09-29T05:39:31.232Z,1.10
2018-09-29T05:41:59.965Z,1.20
2018-09-29T05:44:28.911Z,1.40
2018-09-29T05:46:57.660Z,1.10
2018-09-29T05:49:26.529Z,1.20
2018-09-29T05:51:55.297Z,1.30
2018-09-29T05:54:24.052Z,1.40
2018-09-29T05:56:52.731Z,1.20
2018-09-29T05:59:21.747Z,1.30
2018-09-29T06:01:50.797Z,1.63
2018-09-29T06:04:19.564Z,1.33
2018-09-29T06:06:48.256Z,1.40
2018-09-29T06:09:16.993Z,1.27
2018-09-29T06:11:45.915Z,1.63
2018-09-29T06:14:14.763Z,1.60
2018-09-29T06:16:43.772Z,1.47
2018-09-29T06:19:13.081Z,1.83
2018-09-29T06:21:42.483Z,1.87
2018-09-29T06:24:12.397Z,1.67
2018-09-29T06:26:41.121Z,1.43
2018-09-29T06:29:10.609Z,1.37
2018-09-29T06:31:40.352Z,1.60
2018-09-29T06:34:09.061Z,1.63
2018-09-29T06:36:37.773Z,1.83
2018-09-29T06:39:07.503Z,1.93
2018-09-29T06:41:36.199Z,1.70
2018-09-29T06:44:05.169Z,1.43
2018-09-29T06:46:33.888Z,1.60
2018-09-29T06:49:02.559Z,1.80
2018-09-29T06:51:31.442Z,1.93
2018-09-29T06:54:00.420Z,2.03
2018-09-29T06:56:29.134Z,1.60
2018-09-29T06:58:57.954Z,2.50
2018-09-29T07:01:26.775Z,1.40
2018-09-29T07:03:55.680Z,1.53
2018-09-29T07:06:24.553Z,1.80
2018-09-29T07:08:53.263Z,2.03
2018-09-29T07:11:21.968Z,1.23
2018-09-29T07:13:50.685Z,2.07
2018-09-29T07:16:19.326Z,1.70
2018-09-29T07:18:48.046Z,1.10
2018-09-29T07:21:16.747Z,1.73
2018-09-29T07:23:45.422Z,3.17
2018-09-29T07:26:14.195Z,2.37
2018-09-29T07:28:42.883Z,4.10
2018-09-29T07:31:11.601Z,2.00
2018-09-29T07:33:40.309Z,2.07
2018-09-29T07:36:08.938Z,2.50
2018-09-29T07:38:37.898Z,4.67
2018-09-29T07:41:06.651Z,6.40
2018-09-29T07:43:35.314Z,2.57
2018-09-29T07:46:04.964Z,5.57
2018-09-29T07:48:33.970Z,3.43
2018-09-29T07:51:02.670Z,2.37
2018-09-29T07:53:31.505Z,2.00
2018-09-29T07:56:00.297Z,3.30
2018-09-29T07:58:29.285Z,3.10
2018-09-29T08:00:57.955Z,2.07
2018-09-29T08:03:26.665Z,2.23
2018-09-29T08:05:55.395Z,2.50
2018-09-29T08:08:24.127Z,2.37
2018-09-29T08:10:53.480Z,1.90
2018-09-29T08:13:22.230Z,2.00
2018-09-29T08:15:50.926Z,1.83
2018-09-29T08:18:19.588Z,2.60
2018-09-29T08:20:48.423Z,1.77
2018-09-29T08:23:17.067Z,2.30
2018-09-29T08:25:45.860Z,3.50
2018-09-29T08:28:14.666Z,1.90
2018-09-29T08:30:43.450Z,1.77
2018-09-29T08:33:12.152Z,3.00
2018-09-29T08:35:40.795Z,1.67
2018-09-29T08:38:09.595Z,2.30
2018-09-29T08:40:38.369Z,2.40
2018-09-29T08:43:07.095Z,1.83
2018-09-29T08:45:35.929Z,1.73
2018-09-29T08:48:05.434Z,2.07
2018-09-29T08:50:34.178Z,1.70
2018-09-29T08:53:03.282Z,1.67
2018-09-29T08:55:32.028Z,1.40
2018-09-29T08:58:00.712Z,1.20
2018-09-29T09:00:29.489Z,1.47
2018-09-29T09:02:58.315Z,1.37
2018-09-29T09:05:27.104Z,1.60
2018-09-29T09:07:55.904Z,1.03
2018-09-29T09:10:24.724Z,1.40
2018-09-29T09:12:53.557Z,1.13
2018-09-29T09:15:22.368Z,1.53
2018-09-29T09:17:52.107Z,1.10
2018-09-29T09:20:20.791Z,1.70
2018-09-29T09:22:49.711Z,1.20
2018-09-29T09:25:18.452Z,1.30
2018-09-29T09:27:47.453Z,1.47
2018-09-29T09:30:16.328Z,1.30
2018-09-29T09:32:45.244Z,1.00
2018-09-29T09:35:14.132Z,1.10
2018-09-29T09:37:42.957Z,1.50
2018-09-29T09:40:12.847Z,1.80
2018-09-29T09:42:41.539Z,1.00
2018-09-29T09:45:10.379Z,0.90
2018-09-29T09:47:39.342Z,1.23
2018-09-29T09:50:07.994Z,1.90
2018-09-29T09:52:36.927Z,1.10
2018-09-29T09:55:05.650Z,1.30
2018-09-29T09:57:34.413Z,0.83
2018-09-29T10:00:04.104Z,0.80
2018-09-29T10:02:38.452Z,0.93
2018-09-29T10:05:07.138Z,1.10
2018-09-29T10:07:35.882Z,0.83
2018-09-29T10:10:04.553Z,0.80
2018-09-29T10:12:33.252Z,0.90
2018-09-29T10:15:02.063Z,1.10
2018-09-29T10:17:30.832Z,0.83
2018-09-29T10:20:07.552Z,1.00
2018-09-29T10:22:36.289Z,0.80
2018-09-29T10:25:05.038Z,0.90
2018-09-29T10:27:33.743Z,0.80
2018-09-29T10:30:02.365Z,0.80
2018-09-29T10:32:30.970Z,1.20
2018-09-29T10:34:59.619Z,0.80
2018-09-29T10:37:28.211Z,0.80
2018-09-29T10:39:56.803Z,0.80
2018-09-29T10:42:25.452Z,0.93
2018-09-29T10:44:54.135Z,0.63
2018-09-29T10:47:22.843Z,1.17
2018-09-29T10:49:51.487Z,1.10
2018-09-29T10:52:20.171Z,0.90
2018-09-29T10:54:48.891Z,0.90
2018-09-29T10:57:17.586Z,1.10
2018-09-29T10:59:46.186Z,1.00
2018-09-29T11:02:14.964Z,0.63
2018-09-29T11:04:43.640Z,0.83
2018-09-29T11:07:12.370Z,1.03
2018-09-29T11:09:41.149Z,0.90
2018-09-29T11:12:09.908Z,0.70
2018-09-29T11:14:38.542Z,0.93
2018-09-29T11:17:07.328Z,1.10
2018-09-29T11:19:36.094Z,0.63
2018-09-29T11:22:04.950Z,0.87
2018-09-29T11:24:33.639Z,0.70
2018-09-29T11:27:02.264Z,1.10
2018-09-29T11:29:30.859Z,1.33
2018-09-29T11:31:59.525Z,1.37
2018-09-29T11:34:28.287Z,1.17
2018-09-29T11:36:57.160Z,0.90
2018-09-29T11:39:26.259Z,1.00
2018-09-29T11:41:54.877Z,0.67
2018-09-29T11:44:23.722Z,0.70
2018-09-29T11:46:52.460Z,0.63
2018-09-29T11:49:21.543Z,0.53
2018-09-29T11:51:50.232Z,1.00
2018-09-29T11:54:19.517Z,0.97
2018-09-29T11:56:48.200Z,2.10
2018-09-29T11:59:16.892Z,1.37
2018-09-29T12:01:45.853Z,1.57
2018-09-29T12:04:14.602Z,1.00
2018-09-29T12:06:43.313Z,0.70
2018-09-29T12:09:13.077Z,0.90
2018-09-29T12:11:41.922Z,1.20
2018-09-29T12:14:10.739Z,0.93
2018-09-29T12:16:39.471Z,0.90
2018-09-29T12:19:08.085Z,0.67
2018-09-29T12:21:36.759Z,1.10
2018-09-29T12:24:05.417Z,1.40
2018-09-29T12:26:34.139Z,0.63
2018-09-29T12:29:02.904Z,0.70
2018-09-29T12:31:31.530Z,1.20
2018-09-29T12:34:00.139Z,0.93
2018-09-29T12:36:28.759Z,1.27
2018-09-29T12:38:57.559Z,1.07
2018-09-29T12:41:26.485Z,1.63
2018-09-29T12:43:55.176Z,0.80
2018-09-29T12:46:23.832Z,1.10
2018-09-29T12:48:57.756Z,0.77
2018-09-29T12:51:26.654Z,0.90
2018-09-29T12:53:55.736Z,0.67
2018-09-29T12:56:24.380Z,1.10
2018-09-29T12:58:53.733Z,0.90
2018-09-29T13:01:22.361Z,0.80
2018-09-29T13:03:51.020Z,0.80
2018-09-29T13:06:19.690Z,0.70
2018-09-29T13:08:48.372Z,1.17
2018-09-29T13:11:17.130Z,0.83
2018-09-29T13:13:46.031Z,0.97
2018-09-29T13:16:14.945Z,1.17
2018-09-29T13:18:43.745Z,1.00
2018-09-29T13:21:12.806Z,1.27
2018-09-29T13:23:41.733Z,0.80
2018-09-29T13:26:10.662Z,0.80
2018-09-29T13:28:39.368Z,1.13
2018-09-29T13:31:08.177Z,0.60
2018-09-29T13:33:36.953Z,0.90
2018-09-29T13:36:05.675Z,0.70
2018-09-29T13:38:34.323Z,0.77
2018-09-29T13:41:03.771Z,0.90
2018-09-29T13:43:32.459Z,1.03
2018-09-29T13:46:01.172Z,0.60
2018-09-29T13:48:30.063Z,0.73
2018-09-29T13:50:58.684Z,1.10
2018-09-29T13:53:27.394Z,0.70
2018-09-29T13:55:56.116Z,0.97
2018-09-29T13:58:24.974Z,0.83
2018-09-29T14:00:53.798Z,0.70
2018-09-29T14:03:23.518Z,0.90
2018-09-29T14:05:52.385Z,0.93
2018-09-29T14:08:21.909Z,0.70
2018-09-29T14:10:50.591Z,0.90
2018-09-29T14:13:19.373Z,0.70
2018-09-29T14:15:48.037Z,1.10
2018-09-29T14:18:16.801Z,0.87
2018-09-29T14:20:45.573Z,0.70
2018-09-29T14:23:14.309Z,0.80
2018-09-29T14:25:43.139Z,0.70
2018-09-29T14:28:12.132Z,0.60
2018-09-29T14:30:40.920Z,0.77
2018-09-29T14:33:09.679Z,0.90
2018-09-29T14:35:39.170Z,0.77
2018-09-29T14:38:07.988Z,0.90
2018-09-29T14:40:36.832Z,0.77
2018-09-29T14:43:05.668Z,0.73
2018-09-29T14:45:34.502Z,0.60
2018-09-29T14:48:04.102Z,0.80
2018-09-29T14:50:33.094Z,0.90
2018-09-29T14:53:01.826Z,0.70
2018-09-29T14:55:30.945Z,0.60
2018-09-29T14:57:59.816Z,0.60
2018-09-29T15:00:28.582Z,0.87
2018-09-29T15:02:57.308Z,0.50
2018-09-29T15:05:26.194Z,1.03
2018-09-29T15:07:55.081Z,0.90
2018-09-29T15:10:23.969Z,0.53
2018-09-29T15:12:52.902Z,0.80
2018-09-29T15:15:22.676Z,1.00
2018-09-29T15:17:51.581Z,0.67
2018-09-29T15:20:20.359Z,1.27
2018-09-29T15:22:49.123Z,0.73
2018-09-29T15:25:17.839Z,0.60
2018-09-29T15:27:46.731Z,0.80
2018-09-29T15:30:15.493Z,0.70
2018-09-29T15:32:44.296Z,0.47
2018-09-29T15:35:12.902Z,0.90
2018-09-29T15:37:41.628Z,0.80
2018-09-29T15:40:10.381Z,1.13
2018-09-29T15:42:39.385Z,0.70
2018-09-29T15:45:08.625Z,0.80
2018-09-29T15:47:37.221Z,1.00
2018-09-29T15:50:06.227Z,0.57
2018-09-29T15:52:35.479Z,0.73
2018-09-29T15:55:04.328Z,0.50
2018-09-29T15:57:33.107Z,0.70
2018-09-29T16:00:01.741Z,0.50
2018-09-29T16:02:30.612Z,1.03
2018-09-29T16:04:59.951Z,0.70
2018-09-29T16:07:28.709Z,1.23
2018-09-29T16:09:57.988Z,0.70
2018-09-29T16:12:26.730Z,0.70
2018-09-29T16:14:55.749Z,0.60
2018-09-29T16:17:24.511Z,0.70
2018-09-29T16:19:53.702Z,0.63
2018-09-29T16:22:22.473Z,0.60
2018-09-29T16:24:51.170Z,0.53
2018-09-29T16:27:20.340Z,0.67
2018-09-29T16:29:49.236Z,0.40
2018-09-29T16:32:17.988Z,0.80
2018-09-29T16:34:46.627Z,0.50
2018-09-29T16:37:15.490Z,0.73
2018-09-29T16:39:44.334Z,0.50
2018-09-29T16:42:13.107Z,0.80
2018-09-29T16:44:42.120Z,0.60
2018-09-29T16:47:11.176Z,1.10
2018-09-29T16:49:40.038Z,0.50
2018-09-29T16:52:08.744Z,0.60
2018-09-29T16:54:37.415Z,0.70
2018-09-29T16:57:06.170Z,0.73
2018-09-29T16:59:34.860Z,1.10
2018-09-29T17:02:03.706Z,0.80
2018-09-29T17:07:13.525Z,0.73
2018-09-29T17:09:42.478Z,0.80
2018-09-29T17:12:11.261Z,0.77
2018-09-29T17:14:40.137Z,0.63
2018-09-29T17:17:08.815Z,1.00
2018-09-29T17:19:37.580Z,1.33
2018-09-29T17:22:06.363Z,1.20
2018-09-29T17:24:35.103Z,0.60
2018-09-29T17:27:04.285Z,1.07
2018-09-29T17:29:33.004Z,1.10
2018-09-29T17:32:01.839Z,0.90
2018-09-29T17:34:30.553Z,1.03
2018-09-29T17:36:59.308Z,1.10
2018-09-29T17:39:28.686Z,1.27
2018-09-29T17:41:58.914Z,1.00
2018-09-29T17:44:27.665Z,0.77
2018-09-29T17:46:56.561Z,1.00
2018-09-29T17:49:25.275Z,0.95
2018-09-29T17:51:53.962Z,0.90
2018-09-29T17:54:22.671Z,1.00
2018-09-29T17:56:51.480Z,0.73
2018-09-29T17:59:20.258Z,1.10
2018-09-29T18:01:49.106Z,0.90
2018-09-29T18:04:17.909Z,1.10
2018-09-29T18:06:46.905Z,1.23
2018-09-29T18:09:15.653Z,1.17
2018-09-29T18:11:44.405Z,1.17
2018-09-29T18:14:13.174Z,1.00
2018-09-29T18:16:41.853Z,1.50
2018-09-29T18:19:10.554Z,1.37
2018-09-29T18:21:39.277Z,1.03
2018-09-29T18:24:08.107Z,1.10
2018-09-29T18:26:36.804Z,1.23
2018-09-29T18:29:05.823Z,1.00
2018-09-29T18:31:34.604Z,1.10
2018-09-29T18:34:04.077Z,1.20
2018-09-29T18:36:32.858Z,1.40
2018-09-29T18:39:01.530Z,1.07
2018-09-29T18:41:30.224Z,0.83
2018-09-29T18:43:58.896Z,1.23
2018-09-29T18:46:27.639Z,1.30
2018-09-29T18:48:56.330Z,1.40
2018-09-29T18:51:25.058Z,1.47
2018-09-29T18:53:53.729Z,2.10
2018-09-29T18:56:22.465Z,1.80
2018-09-29T18:58:51.172Z,1.73
2018-09-29T19:01:19.928Z,2.20
2018-09-29T19:03:48.655Z,1.57
2018-09-29T19:06:17.431Z,1.97
2018-09-29T19:08:46.145Z,2.00
2018-09-29T19:11:14.864Z,1.73
2018-09-29T19:13:43.563Z,2.40
2018-09-29T19:16:12.332Z,1.83
2018-09-29T19:18:41.092Z,1.83
2018-09-29T19:21:09.756Z,2.17
2018-09-29T19:23:38.664Z,2.20
2018-09-29T19:26:07.349Z,2.27
2018-09-29T19:28:36.040Z,2.00
2018-09-29T19:31:04.712Z,2.23
2018-09-29T19:33:33.472Z,2.17
2018-09-29T19:36:02.094Z,1.90
2018-09-29T19:38:30.842Z,2.57
2018-09-29T19:40:59.517Z,2.50
2018-09-29T19:43:28.212Z,2.40
2018-09-29T19:45:56.938Z,2.60
2018-09-29T19:48:25.574Z,2.23
2018-09-29T19:50:54.284Z,2.13
2018-09-29T19:53:23.186Z,2.90
2018-09-29T19:55:51.892Z,2.60
2018-09-29T19:58:20.593Z,2.80
2018-09-29T20:00:49.262Z,2.83
2018-09-29T20:03:17.893Z,3.17
2018-09-29T20:05:46.628Z,2.40
2018-09-29T20:08:15.441Z,2.47
2018-09-29T20:10:44.156Z,2.73
2018-09-29T20:13:12.846Z,3.03
2018-09-29T20:15:41.608Z,2.73
2018-09-29T20:18:10.390Z,3.73
2018-09-29T20:20:39.089Z,2.83
2018-09-29T20:23:07.911Z,3.40
2018-09-29T20:25:36.657Z,2.90
2018-09-29T20:28:05.416Z,3.20
2018-09-29T20:30:34.190Z,3.17
2018-09-29T20:33:02.897Z,3.17
2018-09-29T20:35:31.650Z,2.93
2018-09-29T20:38:00.305Z,3.30
2018-09-29T20:40:29.016Z,2.90
2018-09-29T20:42:57.782Z,3.13
2018-09-29T20:45:26.493Z,3.23
2018-09-29T20:47:55.251Z,4.00
2018-09-29T20:50:23.963Z,3.50
2018-09-29T20:52:52.599Z,3.03
2018-09-29T20:55:21.287Z,2.90
2018-09-29T20:57:50.017Z,3.13
2018-09-29T21:00:18.771Z,3.07
2018-09-29T21:02:47.430Z,2.83
2018-09-29T21:05:16.082Z,3.17
2018-09-29T21:07:44.738Z,3.30
2018-09-29T21:10:13.480Z,2.57
2018-09-29T21:12:42.167Z,3.47
2018-09-29T21:15:10.770Z,3.03
2018-09-29T21:17:39.642Z,3.17
2018-09-29T21:20:08.421Z,3.13
2018-09-29T21:22:37.166Z,3.57
2018-09-29T21:25:05.830Z,3.60
2018-09-29T21:27:34.474Z,4.27
2018-09-29T21:30:03.920Z,3.17
2018-09-29T21:32:32.651Z,3.10
2018-09-29T21:35:01.297Z,3.13
2018-09-29T21:37:29.966Z,2.90
2018-09-29T21:39:58.619Z,3.20
2018-09-29T21:42:27.374Z,3.07
2018-09-29T21:44:56.061Z,3.40
2018-09-29T21:47:24.746Z,3.10
2018-09-29T21:49:53.523Z,3.03
2018-09-29T21:52:22.380Z,3.37
2018-09-29T21:54:51.077Z,3.20
2018-09-29T21:57:20.007Z,2.90
2018-09-29T21:59:48.716Z,3.00
2018-09-29T22:02:17.440Z,2.97
2018-09-29T22:04:46.171Z,3.20
2018-09-29T22:07:14.856Z,3.00
2018-09-29T22:09:43.572Z,3.10
2018-09-29T22:12:12.295Z,3.17
2018-09-29T22:14:41.114Z,3.37
2018-09-29T22:17:10.029Z,2.60
2018-09-29T22:19:38.801Z,2.40
2018-09-29T22:22:07.605Z,2.40
2018-09-29T22:24:36.412Z,3.00
2018-09-29T22:27:05.226Z,2.73
2018-09-29T22:29:33.966Z,3.00
2018-09-29T22:32:02.665Z,3.33
2018-09-29T22:34:31.297Z,2.47
2018-09-29T22:36:59.995Z,2.60
2018-09-29T22:39:28.707Z,2.77
2018-09-29T22:41:57.339Z,3.17
2018-09-29T22:44:26.128Z,2.90
2018-09-29T22:46:54.825Z,2.50
2018-09-29T22:49:23.520Z,2.83
2018-09-29T22:51:52.321Z,2.60
2018-09-29T22:54:21.020Z,2.33
2018-09-29T22:56:49.663Z,2.63
2018-09-29T22:59:18.361Z,2.43
2018-09-29T23:01:47.037Z,2.60
2018-09-29T23:04:15.785Z,3.17
2018-09-29T23:06:44.500Z,2.70
2018-09-29T23:09:13.192Z,2.40
2018-09-29T23:11:41.999Z,2.40
2018-09-29T23:14:10.979Z,2.67
2018-09-29T23:16:39.775Z,2.47
2018-09-29T23:19:08.703Z,2.20
2018-09-29T23:21:37.427Z,2.27
2018-09-29T23:24:06.105Z,2.30
2018-09-29T23:26:34.785Z,2.50
2018-09-29T23:29:04.336Z,2.10
2018-09-29T23:31:33.013Z,2.57
2018-09-29T23:34:01.708Z,2.73
2018-09-29T23:36:30.354Z,2.53
2018-09-29T23:38:59.043Z,2.47
2018-09-29T23:41:27.704Z,2.10
2018-09-29T23:43:56.416Z,2.73
2018-09-29T23:46:25.207Z,2.50
2018-09-29T23:48:53.957Z,2.77
2018-09-29T23:51:22.670Z,2.47
2018-09-29T23:53:51.401Z,2.50
2018-09-29T23:56:20.003Z,2.30
2018-09-29T23:58:48.839Z,2.67
